Time;durP1;ratioP1;P1;durP2;ratioP2;P2;SDS_P1;SDS_P2;PMS_P1;PMS_P2;Temp;Humidity;BMP_temperature;BMP_pressure;BME280_temperature;BME280_humidity;BME280_pressure;Samples;Min_cycle;Max_cycle;Signal;HPM_P1;HPM_P2
2021/06/02 00:03:51;;;;;;;5.10;4.67;;;20.50;51.20;;;;;;5025222;28;20474;-76
2021/06/02 00:06:21;;;;;;;5.77;5.27;;;20.50;51.20;;;;;;5027408;28;20439;-77
2021/06/02 00:08:46;;;;;;;5.17;4.77;;;20.40;51.30;;;;;;5029000;28;20869;-75
2021/06/02 00:11:12;;;;;;;5.43;5.03;;;20.40;51.30;;;;;;5025151;28;20489;-75
2021/06/02 00:13:39;;;;;;;5.37;4.97;;;20.40;51.60;;;;;;5026947;28;20204;-77
2021/06/02 00:16:04;;;;;;;8.27;4.90;;;20.40;51.70;;;;;;5026204;28;20189;-74
2021/06/02 00:18:30;;;;;;;5.10;4.70;;;20.30;51.60;;;;;;5025501;28;21095;-75
2021/06/02 00:20:57;;;;;;;5.77;5.10;;;20.30;51.50;;;;;;5027178;28;20197;-75
2021/06/02 00:23:22;;;;;;;5.83;5.33;;;20.30;51.70;;;;;;5024737;28;20239;-76
2021/06/02 00:25:48;;;;;;;4.97;4.63;;;20.20;51.70;;;;;;5027059;28;20972;-75
2021/06/02 00:28:18;;;;;;;4.90;4.40;;;20.20;51.90;;;;;;5026743;28;20250;-74
2021/06/02 00:30:48;;;;;;;5.20;4.63;;;20.30;52.10;;;;;;5028964;28;20426;-76
2021/06/02 00:33:14;;;;;;;5.23;4.50;;;20.20;51.90;;;;;;5025201;28;20458;-75
2021/06/02 00:35:42;;;;;;;4.80;4.40;;;20.20;51.90;;;;;;5027399;28;21275;-79
2021/06/02 00:38:08;;;;;;;4.57;4.27;;;20.20;51.90;;;;;;5025308;28;20562;-77
2021/06/02 00:40:56;;;;;;;5.20;4.70;;;20.10;51.90;;;;;;5026079;28;20423;-76
2021/06/02 00:43:21;;;;;;;5.23;4.73;;;20.00;51.90;;;;;;5024340;28;20550;-74
2021/06/02 00:45:48;;;;;;;4.67;4.37;;;20.00;52.10;;;;;;5025659;28;20533;-74
2021/06/02 00:48:18;;;;;;;5.57;5.07;;;19.90;52.20;;;;;;5028586;28;20698;-74
2021/06/02 00:50:49;;;;;;;4.80;4.40;;;19.80;52.20;;;;;;5028627;28;20447;-74
2021/06/02 00:53:15;;;;;;;5.10;4.70;;;19.80;52.30;;;;;;5023267;28;20446;-75
2021/06/02 00:55:42;;;;;;;5.40;4.13;;;19.70;52.50;;;;;;5023350;28;20450;-75
2021/06/02 00:58:12;;;;;;;4.90;4.50;;;19.70;52.70;;;;;;5027253;28;20537;-74
2021/06/02 01:00:38;;;;;;;5.30;4.87;;;19.70;52.90;;;;;;5026664;28;20454;-75
2021/06/02 01:03:06;;;;;;;4.97;4.57;;;19.60;53.00;;;;;;5025028;28;20471;-77
2021/06/02 01:05:32;;;;;;;9.00;5.90;;;19.60;53.00;;;;;;5025813;28;20180;-77
2021/06/02 01:08:02;;;;;;;5.07;4.63;;;19.60;52.90;;;;;;5025833;28;20458;-75
2021/06/02 01:10:28;;;;;;;6.90;5.07;;;19.60;53.00;;;;;;5025260;28;20916;-76
2021/06/02 01:12:57;;;;;;;4.67;4.37;;;19.60;52.90;;;;;;5025481;28;20997;-76
2021/06/02 01:15:23;;;;;;;4.97;4.50;;;19.50;52.90;;;;;;5022060;28;20586;-74
2021/06/02 01:17:49;;;;;;;6.60;5.00;;;19.60;53.00;;;;;;5028244;28;20509;-77
2021/06/02 01:20:17;;;;;;;5.07;4.67;;;19.50;53.00;;;;;;5025979;28;20530;-74
2021/06/02 01:22:43;;;;;;;5.30;4.90;;;19.40;53.00;;;;;;5023432;28;20239;-76
2021/06/02 01:25:17;;;;;;;5.07;4.67;;;19.40;53.30;;;;;;5025921;28;20433;-77
2021/06/02 01:27:47;;;;;;;6.73;5.40;;;19.40;53.50;;;;;;5025466;28;20475;-79
2021/06/02 01:30:19;;;;;;;5.00;4.70;;;19.40;53.50;;;;;;5022173;28;20440;-76
2021/06/02 01:33:27;;;;;;;5.50;5.00;;;19.40;53.60;;;;;;5024797;28;20442;-75
2021/06/02 01:36:07;;;;;;;5.60;4.63;;;19.40;53.90;;;;;;5026586;28;20419;-74
2021/06/02 01:38:53;;;;;;;5.53;5.07;;;19.30;53.80;;;;;;5023152;28;20472;-76
2021/06/02 01:41:22;;;;;;;5.37;4.97;;;19.30;53.80;;;;;;5025112;28;20492;-76
2021/06/02 01:44:31;;;;;;;5.80;5.33;;;19.30;53.90;;;;;;5023202;28;20455;-76
2021/06/02 01:47:29;;;;;;;5.20;4.80;;;19.20;54.00;;;;;;5026443;28;20578;-75
2021/06/02 01:50:36;;;;;;;5.90;5.10;;;19.20;54.10;;;;;;5026493;28;20518;-77
2021/06/02 01:53:35;;;;;;;4.80;4.40;;;19.10;54.10;;;;;;5019965;28;20478;-77
2021/06/02 01:56:25;;;;;;;5.50;5.00;;;19.10;54.10;;;;;;5024230;28;20442;-78
2021/06/02 01:59:09;;;;;;;5.47;5.07;;;19.00;54.00;;;;;;5023191;28;21727;-75
2021/06/02 02:02:04;;;;;;;6.10;5.10;;;18.90;54.30;;;;;;5026014;28;20465;-79
2021/06/02 02:05:03;;;;;;;5.50;5.00;;;18.80;54.50;;;;;;5024342;28;20519;-77
2021/06/02 02:07:50;;;;;;;6.43;5.27;;;18.90;54.60;;;;;;5022077;28;20447;-75
2021/06/02 02:10:25;;;;;;;4.53;4.23;;;18.80;54.50;;;;;;5026650;28;20450;-75
2021/06/02 02:13:20;;;;;;;5.00;4.60;;;18.80;54.70;;;;;;5025155;28;20445;-75
2021/06/02 02:16:00;;;;;;;5.10;4.70;;;18.60;54.70;;;;;;5023532;28;20530;-77
2021/06/02 02:18:53;;;;;;;5.17;4.77;;;18.60;54.70;;;;;;5022387;28;20447;-77
2021/06/02 02:21:37;;;;;;;4.70;4.40;;;18.60;55.00;;;;;;5028256;28;20505;-75
2021/06/02 02:24:22;;;;;;;5.27;4.87;;;18.60;55.00;;;;;;5026469;28;20461;-76
2021/06/02 02:27:09;;;;;;;4.90;4.50;;;18.50;55.10;;;;;;5021407;28;20510;-76
2021/06/02 02:29:57;;;;;;;5.90;5.40;;;18.50;55.00;;;;;;5022832;28;20446;-76
2021/06/02 02:32:47;;;;;;;5.00;4.60;;;18.50;55.10;;;;;;5023507;28;20431;-76
2021/06/02 02:35:40;;;;;;;5.30;4.90;;;18.40;55.20;;;;;;5027411;28;20460;-76
2021/06/02 02:38:22;;;;;;;5.37;4.60;;;18.30;55.50;;;;;;5027434;28;20459;-77
2021/06/02 02:41:09;;;;;;;4.80;4.40;;;18.00;55.90;;;;;;5025144;28;20788;-76
2021/06/02 02:43:43;;;;;;;5.40;4.30;;;17.80;56.40;;;;;;5021462;28;20859;-75
2021/06/02 02:46:24;;;;;;;5.90;5.40;;;17.60;56.60;;;;;;5028078;28;20453;-75
2021/06/02 02:49:07;;;;;;;6.63;4.73;;;17.60;56.60;;;;;;5026354;28;20449;-76
2021/06/02 02:52:09;;;;;;;5.07;4.67;;;17.60;56.80;;;;;;5028809;28;20431;-77
2021/06/02 02:54:38;;;;;;;5.07;4.57;;;17.60;56.80;;;;;;5026604;28;20995;-75
2021/06/02 02:57:17;;;;;;;4.77;4.37;;;17.70;56.80;;;;;;5026419;28;20431;-77
2021/06/02 03:00:17;;;;;;;4.77;4.37;;;17.70;56.80;;;;;;5027914;28;20435;-78
2021/06/02 03:03:09;;;;;;;9.07;5.40;;;17.70;56.90;;;;;;5020719;28;20475;-77
2021/06/02 03:05:43;;;;;;;5.63;4.80;;;17.80;56.70;;;;;;5030609;28;20439;-76
2021/06/02 03:08:09;;;;;;;5.43;5.03;;;17.80;56.70;;;;;;5026976;28;20474;-76
2021/06/02 03:10:39;;;;;;;4.90;4.50;;;17.70;56.70;;;;;;5027606;28;20418;-76
2021/06/02 03:13:10;;;;;;;8.20;5.93;;;17.70;56.80;;;;;;5026606;28;20196;-76
2021/06/02 03:15:43;;;;;;;8.80;4.77;;;17.70;56.90;;;;;;5026229;28;20486;-75
2021/06/02 03:18:33;;;;;;;5.20;4.57;;;17.70;56.90;;;;;;5029851;28;20462;-76
2021/06/02 03:21:13;;;;;;;6.00;4.50;;;17.70;57.00;;;;;;5027138;28;20432;-76
2021/06/02 03:23:59;;;;;;;4.97;4.40;;;17.70;57.00;;;;;;5029862;28;20482;-76
2021/06/02 03:27:00;;;;;;;5.10;4.70;;;17.70;57.00;;;;;;5025416;28;20815;-77
2021/06/02 03:29:46;;;;;;;5.03;4.63;;;17.70;57.00;;;;;;5026160;28;20470;-79
2021/06/02 03:32:31;;;;;;;4.97;4.47;;;17.70;57.00;;;;;;5012399;28;20462;-76
2021/06/02 03:35:11;;;;;;;7.20;4.87;;;17.60;57.00;;;;;;5027769;28;20451;-76
2021/06/02 03:38:03;;;;;;;5.63;5.17;;;17.60;57.20;;;;;;5025539;28;20925;-76
2021/06/02 03:40:35;;;;;;;7.70;4.80;;;17.50;57.40;;;;;;5026354;28;20430;-77
2021/06/02 03:43:14;;;;;;;5.13;4.63;;;17.50;57.20;;;;;;5028388;28;20467;-76
2021/06/02 03:46:08;;;;;;;5.10;4.70;;;17.50;57.00;;;;;;5025317;28;20433;-76
2021/06/02 03:48:51;;;;;;;5.37;4.97;;;17.50;57.20;;;;;;5026665;28;20545;-77
2021/06/02 03:51:28;;;;;;;5.03;4.53;;;17.60;57.20;;;;;;5027601;28;20416;-77
2021/06/02 03:53:56;;;;;;;5.60;5.20;;;17.60;57.20;;;;;;5029055;28;20819;-75
2021/06/02 03:57:07;;;;;;;5.13;4.63;;;17.60;57.40;;;;;;5027056;28;20442;-77
2021/06/02 03:59:56;;;;;;;4.73;4.33;;;17.60;57.30;;;;;;5019980;28;20469;-78
2021/06/02 04:02:36;;;;;;;5.23;4.60;;;17.60;57.00;;;;;;5028202;28;20467;-77
2021/06/02 04:05:27;;;;;;;5.20;4.80;;;17.50;57.10;;;;;;5028016;28;20442;-75
2021/06/02 04:08:29;;;;;;;5.40;4.90;;;17.50;57.30;;;;;;5025744;28;20451;-78
2021/06/02 04:11:17;;;;;;;5.20;4.70;;;17.50;57.40;;;;;;5028102;28;20427;-80
2021/06/02 04:14:07;;;;;;;9.43;4.67;;;17.50;57.40;;;;;;5025382;28;20428;-75
2021/06/02 04:16:42;;;;;;;4.60;4.20;;;17.50;57.50;;;;;;5027844;28;20942;-75
2021/06/02 04:19:14;;;;;;;4.70;4.30;;;17.50;57.50;;;;;;5028593;28;20437;-76
2021/06/02 04:21:43;;;;;;;5.83;5.10;;;17.50;57.70;;;;;;5027094;28;20432;-78
2021/06/02 04:24:12;;;;;;;5.23;4.73;;;17.50;57.60;;;;;;5027679;28;20471;-75
2021/06/02 04:26:38;;;;;;;6.47;5.87;;;17.50;57.60;;;;;;5025592;28;20435;-75
2021/06/02 04:29:10;;;;;;;5.40;4.90;;;17.60;57.90;;;;;;5028862;28;22666;-75
2021/06/02 04:31:38;;;;;;;5.20;4.80;;;17.60;57.70;;;;;;5027280;28;20435;-76
2021/06/02 04:34:04;;;;;;;6.10;5.50;;;17.60;57.60;;;;;;5026989;28;20625;-76
2021/06/02 04:36:31;;;;;;;7.40;4.57;;;17.70;57.30;;;;;;5022684;28;20562;-75
2021/06/02 04:38:59;;;;;;;10.53;6.10;;;17.70;57.40;;;;;;5025819;28;20857;-78
2021/06/02 04:41:27;;;;;;;7.10;4.83;;;17.70;57.50;;;;;;5027289;28;20573;-76
2021/06/02 04:43:54;;;;;;;5.83;5.00;;;17.80;57.60;;;;;;5027483;28;20825;-75
2021/06/02 04:46:21;;;;;;;5.93;5.43;;;17.80;57.40;;;;;;5027558;28;22452;-75
2021/06/02 04:48:47;;;;;;;5.00;4.60;;;17.90;57.30;;;;;;5026002;28;20489;-80
2021/06/02 04:51:31;;;;;;;5.60;5.10;;;17.90;57.10;;;;;;5025424;28;20420;-77
2021/06/02 04:54:03;;;;;;;8.13;4.80;;;18.00;56.90;;;;;;5027207;28;20431;-75
2021/06/02 04:56:56;;;;;;;5.73;5.30;;;18.00;56.80;;;;;;5025048;28;20445;-77
2021/06/02 04:59:50;;;;;;;5.67;5.17;;;18.10;56.90;;;;;;5028440;28;20875;-77
2021/06/02 05:02:34;;;;;;;6.23;5.30;;;18.20;56.70;;;;;;5026986;28;20459;-75
2021/06/02 05:05:21;;;;;;;5.00;4.60;;;18.30;56.80;;;;;;5027346;28;20471;-77
2021/06/02 05:08:08;;;;;;;6.23;5.33;;;18.30;56.60;;;;;;5024627;28;20455;-76
2021/06/02 05:10:52;;;;;;;7.00;5.33;;;18.40;56.50;;;;;;5026183;28;20512;-77
2021/06/02 05:13:56;;;;;;;5.17;4.77;;;18.40;56.30;;;;;;5026833;28;20953;-75
2021/06/02 05:16:59;;;;;;;5.20;4.70;;;18.50;56.20;;;;;;5016798;28;20439;-77
2021/06/02 05:20:04;;;;;;;6.63;4.30;;;18.60;56.10;;;;;;5004739;28;20508;-76
2021/06/02 05:23:03;;;;;;;6.20;4.83;;;18.70;56.10;;;;;;5027304;28;20980;-78
2021/06/02 05:26:24;;;;;;;5.20;4.70;;;18.70;55.50;;;;;;5031607;28;20429;-78
2021/06/02 05:29:07;;;;;;;7.47;4.97;;;18.70;55.20;;;;;;5044979;28;20458;-77
2021/06/02 05:32:10;;;;;;;5.67;5.13;;;18.80;55.10;;;;;;5031867;28;20443;-77
2021/06/02 05:35:01;;;;;;;9.40;5.13;;;18.60;55.70;;;;;;5030982;28;20525;-77
2021/06/02 05:37:53;;;;;;;4.50;4.20;;;18.50;54.90;;;;;;5027969;28;20442;-76
2021/06/02 05:40:45;;;;;;;4.70;4.37;;;18.70;54.40;;;;;;5030666;28;20500;-76
2021/06/02 05:43:23;;;;;;;5.27;4.87;;;18.70;54.50;;;;;;5031456;28;20523;-78
2021/06/02 05:46:10;;;;;;;5.00;4.60;;;18.80;54.70;;;;;;5028261;28;20435;-77
2021/06/02 05:49:01;;;;;;;4.50;4.10;;;18.90;54.50;;;;;;5028925;28;20501;-77
2021/06/02 05:51:58;;;;;;;5.20;4.80;;;18.90;54.30;;;;;;5027616;28;20426;-76
2021/06/02 05:54:45;;;;;;;11.23;5.00;;;18.90;54.60;;;;;;5028207;28;20430;-76
2021/06/02 05:57:51;;;;;;;10.23;5.00;;;18.90;55.00;;;;;;5027822;28;20817;-77
2021/06/02 06:00:49;;;;;;;5.57;5.17;;;18.90;55.20;;;;;;5025243;28;20499;-77
2021/06/02 06:03:52;;;;;;;5.67;4.77;;;19.00;55.30;;;;;;5025109;28;20473;-76
2021/06/02 06:06:43;;;;;;;5.83;4.60;;;19.30;54.90;;;;;;5029818;28;20426;-77
2021/06/02 06:09:56;;;;;;;5.10;4.80;;;19.30;54.20;;;;;;5028529;28;20459;-77
2021/06/02 06:13:03;;;;;;;4.93;4.40;;;19.10;54.50;;;;;;5028169;28;20492;-77
2021/06/02 06:15:57;;;;;;;5.77;5.27;;;19.40;54.80;;;;;;5017867;28;20431;-77
2021/06/02 06:18:47;;;;;;;5.07;4.67;;;19.50;54.30;;;;;;5028375;28;21005;-76
2021/06/02 06:21:35;;;;;;;5.60;5.10;;;19.70;53.90;;;;;;5029069;28;20427;-76
2021/06/02 06:24:10;;;;;;;5.63;4.43;;;19.80;53.80;;;;;;5029672;28;20533;-76
2021/06/02 06:26:54;;;;;;;5.90;5.40;;;19.90;53.80;;;;;;5027918;28;20450;-77
2021/06/02 06:29:50;;;;;;;6.17;5.57;;;20.00;53.80;;;;;;5029798;28;21082;-78
2021/06/02 06:32:18;;;;;;;6.73;5.17;;;20.10;54.00;;;;;;5033289;28;20422;-77
2021/06/02 06:34:47;;;;;;;6.63;4.83;;;20.20;54.10;;;;;;5028962;28;20447;-78
2021/06/02 06:37:14;;;;;;;5.20;4.80;;;20.40;54.10;;;;;;5030639;28;20517;-78
2021/06/02 06:39:53;;;;;;;7.20;4.37;;;20.40;54.50;;;;;;5024077;28;20594;-77
2021/06/02 06:42:24;;;;;;;4.77;4.47;;;20.60;54.20;;;;;;5023355;28;20470;-75
2021/06/02 06:44:58;;;;;;;5.30;4.90;;;20.60;53.90;;;;;;5024248;28;20435;-77
2021/06/02 06:47:25;;;;;;;5.20;4.70;;;20.70;53.60;;;;;;5022406;28;20439;-77
2021/06/02 06:49:54;;;;;;;4.80;4.50;;;20.70;52.90;;;;;;5024113;28;20977;-77
2021/06/02 06:52:24;;;;;;;6.30;4.70;;;20.80;52.70;;;;;;5025164;28;20447;-75
2021/06/02 06:54:52;;;;;;;10.47;5.33;;;20.90;52.80;;;;;;5018294;28;20542;-75
2021/06/02 06:57:21;;;;;;;5.50;5.10;;;21.00;53.00;;;;;;5020605;28;20492;-77
2021/06/02 06:59:48;;;;;;;5.30;4.80;;;21.00;52.80;;;;;;5024115;28;20849;-76
2021/06/02 07:02:14;;;;;;;7.73;5.00;;;21.00;52.60;;;;;;5026858;28;20462;-78
2021/06/02 07:04:41;;;;;;;7.07;5.00;;;21.00;52.00;;;;;;5026870;28;20801;-78
2021/06/02 07:07:08;;;;;;;6.20;5.10;;;21.00;51.70;;;;;;5027935;28;20446;-75
2021/06/02 07:09:34;;;;;;;6.10;4.93;;;21.10;51.80;;;;;;5028633;28;21180;-77
2021/06/02 07:12:00;;;;;;;4.80;4.50;;;21.20;50.90;;;;;;5028129;28;20445;-78
2021/06/02 07:14:29;;;;;;;5.17;4.73;;;21.30;50.60;;;;;;5029630;28;20188;-76
2021/06/02 07:17:03;;;;;;;6.00;5.50;;;21.10;50.30;;;;;;5028534;28;20207;-77
2021/06/02 07:19:31;;;;;;;5.63;5.13;;;21.30;50.30;;;;;;5027615;28;20973;-77
2021/06/02 07:21:58;;;;;;;4.73;4.37;;;21.50;50.40;;;;;;5030097;28;20427;-77
2021/06/02 07:24:25;;;;;;;4.93;4.63;;;21.40;50.00;;;;;;5032680;28;20477;-76
2021/06/02 07:26:50;;;;;;;6.23;5.73;;;21.50;49.60;;;;;;5031822;28;20971;-78
2021/06/02 07:29:17;;;;;;;5.30;4.80;;;21.60;50.00;;;;;;5030817;28;20497;-76
2021/06/02 07:31:43;;;;;;;9.63;5.50;;;21.60;50.40;;;;;;5025050;28;20242;-76
2021/06/02 07:34:08;;;;;;;8.23;5.57;;;21.70;50.10;;;;;;5030519;28;20422;-77
2021/06/02 07:36:35;;;;;;;6.50;5.97;;;21.80;50.30;;;;;;5032401;28;20435;-77
2021/06/02 07:39:04;;;;;;;8.50;6.27;;;21.90;49.80;;;;;;5029686;28;20212;-76
2021/06/02 07:41:30;;;;;;;7.60;5.97;;;22.00;49.90;;;;;;5028699;28;20432;-74
2021/06/02 07:43:55;;;;;;;6.10;5.70;;;22.10;49.80;;;;;;5030047;28;20466;-75
2021/06/02 07:46:22;;;;;;;5.03;4.70;;;22.20;49.80;;;;;;5029817;28;21244;-75
2021/06/02 07:48:48;;;;;;;8.43;5.80;;;22.10;50.00;;;;;;5020362;28;20240;-75
2021/06/02 07:51:14;;;;;;;5.43;4.93;;;22.20;49.50;;;;;;5030988;28;20439;-77
2021/06/02 07:53:40;;;;;;;6.17;5.70;;;22.30;49.60;;;;;;5029893;28;20948;-75
2021/06/02 07:56:06;;;;;;;5.43;4.93;;;22.30;49.90;;;;;;5027871;28;20196;-77
2021/06/02 07:58:31;;;;;;;8.83;5.23;;;22.40;49.60;;;;;;5030328;28;20226;-76
2021/06/02 08:00:57;;;;;;;11.67;10.57;;;22.50;49.90;;;;;;5029411;28;20439;-77
2021/06/02 08:03:23;;;;;;;8.30;7.50;;;22.70;50.10;;;;;;5028221;28;20211;-75
2021/06/02 08:05:49;;;;;;;5.60;5.10;;;22.80;50.20;;;;;;5027752;28;20695;-76
2021/06/02 08:08:14;;;;;;;5.70;5.20;;;22.90;50.10;;;;;;5030662;28;20264;-76
2021/06/02 08:10:40;;;;;;;12.63;11.17;;;22.80;50.40;;;;;;5035189;28;20450;-76
2021/06/02 08:13:06;;;;;;;6.80;5.60;;;22.90;50.00;;;;;;5029504;28;20203;-78
2021/06/02 08:15:32;;;;;;;5.43;4.93;;;23.10;50.10;;;;;;5027997;28;20197;-76
2021/06/02 08:17:57;;;;;;;5.90;5.20;;;23.10;49.50;;;;;;5032239;28;20218;-78
2021/06/02 08:20:23;;;;;;;5.03;4.70;;;23.10;49.60;;;;;;5026480;28;20467;-77
2021/06/02 08:22:49;;;;;;;5.47;5.07;;;23.00;49.00;;;;;;5026648;28;20267;-77
2021/06/02 08:25:16;;;;;;;6.67;5.10;;;23.10;48.40;;;;;;5029506;28;20193;-76
2021/06/02 08:27:43;;;;;;;5.50;5.10;;;23.00;48.90;;;;;;5025399;28;20215;-75
2021/06/02 08:30:10;;;;;;;5.43;5.03;;;23.10;48.50;;;;;;5028716;28;20469;-76
2021/06/02 08:32:37;;;;;;;5.67;5.20;;;23.20;48.70;;;;;;5024719;28;20518;-77
2021/06/02 08:35:05;;;;;;;5.37;4.97;;;23.40;48.70;;;;;;5027684;28;20445;-75
2021/06/02 08:37:31;;;;;;;5.60;4.97;;;23.70;49.40;;;;;;5027075;28;20446;-77
2021/06/02 08:39:56;;;;;;;7.33;6.70;;;23.70;48.80;;;;;;5021096;28;20814;-77
2021/06/02 08:42:22;;;;;;;5.90;5.37;;;23.70;49.20;;;;;;5025254;28;20203;-77
2021/06/02 08:44:48;;;;;;;5.63;5.17;;;23.70;48.30;;;;;;5027990;28;20215;-77
2021/06/02 08:47:14;;;;;;;9.13;5.10;;;23.60;47.50;;;;;;5022390;28;20267;-77
2021/06/02 08:49:39;;;;;;;5.23;4.87;;;23.70;47.50;;;;;;5024329;28;20208;-77
2021/06/02 08:52:07;;;;;;;5.50;4.30;;;23.60;47.00;;;;;;5028651;28;20193;-78
2021/06/02 08:54:34;;;;;;;6.07;4.63;;;23.70;46.70;;;;;;5023322;28;20193;-77
2021/06/02 08:57:04;;;;;;;6.10;4.63;;;23.80;47.30;;;;;;5020609;28;20439;-76
2021/06/02 08:59:30;;;;;;;5.80;5.40;;;24.00;47.20;;;;;;5021922;28;20484;-74
2021/06/02 09:01:57;;;;;;;9.07;5.17;;;24.00;47.50;;;;;;5027915;28;20530;-77
2021/06/02 09:04:23;;;;;;;6.10;5.60;;;24.00;47.70;;;;;;5028984;28;20752;-76
2021/06/02 09:06:49;;;;;;;6.63;5.30;;;24.10;46.60;;;;;;5027141;28;20431;-76
2021/06/02 09:09:16;;;;;;;5.37;4.97;;;24.00;45.00;;;;;;5026857;28;20230;-76
2021/06/02 09:11:47;;;;;;;5.30;5.00;;;23.80;46.10;;;;;;5027542;28;20227;-75
2021/06/02 09:14:35;;;;;;;5.77;5.27;;;23.90;46.60;;;;;;5026313;28;20458;-76
2021/06/02 09:17:06;;;;;;;5.93;5.40;;;24.20;47.30;;;;;;5021237;28;20455;-75
2021/06/02 09:19:41;;;;;;;5.40;5.00;;;24.30;47.60;;;;;;5025947;28;20519;-77
2021/06/02 09:22:12;;;;;;;5.43;5.03;;;24.50;47.60;;;;;;5025102;28;20442;-76
2021/06/02 09:24:51;;;;;;;5.57;5.07;;;24.50;47.10;;;;;;5028788;28;20425;-77
2021/06/02 09:27:18;;;;;;;6.40;5.23;;;24.50;47.60;;;;;;5018061;28;21028;-76
2021/06/02 09:29:52;;;;;;;5.03;4.63;;;24.60;46.30;;;;;;5017035;28;20444;-74
2021/06/02 09:32:19;;;;;;;5.37;4.97;;;24.70;45.80;;;;;;5020633;28;20450;-75
2021/06/02 09:34:45;;;;;;;6.17;5.00;;;24.60;44.60;;;;;;5027694;28;20434;-76
2021/06/02 09:37:11;;;;;;;5.30;4.90;;;24.70;44.10;;;;;;5025747;28;20447;-77
2021/06/02 09:39:44;;;;;;;5.27;4.87;;;25.00;43.90;;;;;;5029342;28;20880;-75
2021/06/02 09:42:19;;;;;;;5.40;4.87;;;25.30;43.70;;;;;;5025554;28;20187;-75
2021/06/02 09:45:10;;;;;;;5.40;5.00;;;25.40;42.80;;;;;;5028648;28;20494;-76
2021/06/02 09:47:44;;;;;;;5.73;5.23;;;25.40;43.00;;;;;;5027231;28;20638;-76
2021/06/02 09:50:13;;;;;;;5.97;5.57;;;25.50;43.50;;;;;;5027599;28;20431;-76
2021/06/02 09:52:47;;;;;;;5.70;4.60;;;25.60;43.80;;;;;;5024253;28;20484;-76
2021/06/02 09:55:33;;;;;;;5.37;4.97;;;25.90;44.00;;;;;;5023673;28;20434;-77
2021/06/02 09:58:19;;;;;;;5.10;4.57;;;26.00;44.30;;;;;;5025184;28;20502;-77
2021/06/02 10:00:53;;;;;;;5.33;4.93;;;26.20;44.60;;;;;;5023574;28;21128;-76
2021/06/02 10:03:21;;;;;;;5.33;4.80;;;26.40;43.90;;;;;;5023569;28;20542;-76
2021/06/02 10:05:52;;;;;;;5.30;4.97;;;26.60;43.70;;;;;;5026890;28;20507;-76
2021/06/02 10:08:34;;;;;;;5.53;5.03;;;26.70;43.20;;;;;;5022870;28;20457;-72
2021/06/02 10:11:16;;;;;;;5.63;5.00;;;26.90;42.60;;;;;;5020719;28;20556;-77
2021/06/02 10:13:42;;;;;;;5.80;5.13;;;27.00;42.40;;;;;;5026062;28;20494;-76
2021/06/02 10:16:10;;;;;;;5.30;4.90;;;27.00;42.20;;;;;;5026618;28;20446;-77
2021/06/02 10:18:38;;;;;;;10.00;4.63;;;27.10;41.90;;;;;;5022826;28;20510;-77
2021/06/02 10:21:09;;;;;;;5.50;5.00;;;27.10;41.90;;;;;;5024281;28;20462;-77
2021/06/02 10:23:39;;;;;;;5.23;4.83;;;27.10;41.40;;;;;;5025494;28;20475;-77
2021/06/02 10:26:07;;;;;;;5.70;5.20;;;27.20;41.20;;;;;;5023250;28;20428;-77
2021/06/02 10:28:32;;;;;;;5.00;4.43;;;27.20;40.80;;;;;;5023522;28;20611;-77
2021/06/02 10:31:00;;;;;;;5.30;5.00;;;27.30;40.50;;;;;;5024047;28;20427;-77
2021/06/02 10:33:27;;;;;;;5.70;5.20;;;27.00;40.00;;;;;;5023949;28;20699;-77
2021/06/02 10:35:54;;;;;;;7.00;4.87;;;27.20;40.20;;;;;;5023042;28;20497;-77
2021/06/02 10:38:21;;;;;;;5.27;4.83;;;27.20;40.20;;;;;;5024102;28;20443;-77
2021/06/02 10:40:47;;;;;;;6.67;5.23;;;27.40;40.20;;;;;;5024641;28;20964;-77
2021/06/02 10:43:18;;;;;;;7.37;5.03;;;27.60;40.50;;;;;;5026340;28;20463;-77
2021/06/02 10:45:48;;;;;;;5.20;4.90;;;27.70;40.40;;;;;;5022518;28;20504;-76
2021/06/02 10:48:14;;;;;;;5.40;4.97;;;27.70;40.60;;;;;;5022061;28;20447;-76
2021/06/02 10:50:44;;;;;;;5.40;5.00;;;27.80;40.20;;;;;;5026310;28;20419;-76
2021/06/02 10:53:20;;;;;;;5.67;5.03;;;27.90;40.30;;;;;;5022796;28;20755;-76
2021/06/02 10:56:07;;;;;;;5.47;5.00;;;28.00;40.10;;;;;;5024489;28;20854;-76
2021/06/02 10:58:48;;;;;;;4.97;4.67;;;28.00;38.40;;;;;;5026165;28;21177;-76
2021/06/02 11:01:19;;;;;;;7.43;5.03;;;28.10;39.80;;;;;;5027025;28;20447;-76
2021/06/02 11:04:08;;;;;;;4.80;4.50;;;28.20;39.30;;;;;;5021753;28;21023;-76
2021/06/02 11:06:36;;;;;;;5.57;5.17;;;28.10;38.70;;;;;;5025159;28;20526;-76
2021/06/02 11:09:05;;;;;;;5.03;4.63;;;28.00;38.10;;;;;;5026709;28;20447;-76
2021/06/02 11:11:36;;;;;;;4.90;4.60;;;28.10;38.30;;;;;;5026407;28;21048;-76
2021/06/02 11:14:16;;;;;;;5.20;4.80;;;28.30;38.70;;;;;;5029133;28;20434;-77
2021/06/02 11:16:50;;;;;;;6.30;5.80;;;28.50;38.60;;;;;;5029178;28;20507;-76
2021/06/02 11:19:24;;;;;;;5.30;5.00;;;28.50;39.00;;;;;;5026661;28;20459;-77
2021/06/02 11:21:53;;;;;;;4.50;4.20;;;28.60;38.70;;;;;;5027059;28;20616;-77
2021/06/02 11:24:31;;;;;;;4.77;4.17;;;28.70;38.10;;;;;;5026926;28;20462;-77
2021/06/02 11:27:12;;;;;;;8.83;4.30;;;28.80;38.50;;;;;;5026391;28;20419;-77
2021/06/02 11:29:54;;;;;;;5.67;4.60;;;28.80;37.70;;;;;;5028848;28;20961;-77
2021/06/02 11:32:19;;;;;;;4.43;3.93;;;28.90;37.90;;;;;;5027742;28;20423;-77
2021/06/02 11:35:06;;;;;;;5.37;4.97;;;28.90;38.80;;;;;;5026750;28;20438;-77
2021/06/02 11:37:34;;;;;;;5.33;4.93;;;29.00;38.80;;;;;;5025917;28;20193;-77
2021/06/02 11:40:04;;;;;;;5.07;4.67;;;29.10;38.30;;;;;;5028055;28;20446;-76
2021/06/02 11:42:37;;;;;;;5.17;4.77;;;29.10;38.20;;;;;;5025637;28;20745;-76
2021/06/02 11:45:15;;;;;;;5.20;4.90;;;29.00;38.70;;;;;;5025395;28;20430;-77
2021/06/02 11:47:46;;;;;;;6.00;5.50;;;29.00;39.10;;;;;;5026193;28;20519;-76
2021/06/02 11:50:24;;;;;;;5.40;5.00;;;28.90;39.30;;;;;;5027470;28;20430;-76
2021/06/02 11:53:00;;;;;;;4.47;4.17;;;29.00;38.70;;;;;;5023944;28;20458;-76
2021/06/02 11:55:28;;;;;;;5.70;5.20;;;29.00;38.90;;;;;;5026919;28;20430;-76
2021/06/02 11:57:54;;;;;;;4.80;4.40;;;29.10;39.00;;;;;;5027210;28;20469;-76
2021/06/02 12:00:26;;;;;;;5.80;5.27;;;29.00;37.50;;;;;;5026970;28;20446;-76
2021/06/02 12:02:56;;;;;;;4.93;4.53;;;29.00;37.10;;;;;;5029958;28;20490;-76
2021/06/02 12:05:23;;;;;;;5.00;4.70;;;29.10;37.20;;;;;;5020618;28;20441;-77
2021/06/02 12:08:00;;;;;;;4.90;4.47;;;29.20;37.20;;;;;;5022558;28;20538;-77
2021/06/02 12:10:28;;;;;;;5.07;4.77;;;29.30;37.80;;;;;;5027238;28;21196;-76
2021/06/02 12:12:54;;;;;;;5.13;4.73;;;29.40;37.40;;;;;;5025955;28;20474;-76
2021/06/02 12:15:20;;;;;;;5.87;4.70;;;29.40;37.20;;;;;;5027460;28;20406;-77
2021/06/02 12:17:48;;;;;;;4.83;4.43;;;29.40;37.10;;;;;;5028534;28;20446;-76
2021/06/02 12:20:24;;;;;;;4.77;4.37;;;29.40;37.50;;;;;;5026928;28;20188;-79
2021/06/02 12:22:51;;;;;;;5.23;4.83;;;29.50;38.10;;;;;;5021360;28;20575;-76
2021/06/02 12:25:23;;;;;;;4.47;4.17;;;29.50;37.50;;;;;;5028723;28;20941;-76
2021/06/02 12:27:50;;;;;;;5.80;4.70;;;29.60;37.10;;;;;;5025189;28;20442;-77
2021/06/02 12:30:21;;;;;;;4.70;4.40;;;29.60;37.00;;;;;;5027020;28;20953;-78
2021/06/02 12:32:52;;;;;;;5.30;4.90;;;29.60;37.10;;;;;;5025153;28;20450;-78
2021/06/02 12:35:33;;;;;;;4.80;4.40;;;29.70;37.10;;;;;;5025667;28;20813;-78
2021/06/02 12:38:06;;;;;;;4.87;4.47;;;29.70;37.40;;;;;;5024922;28;20458;-80
2021/06/02 12:40:34;;;;;;;4.70;4.40;;;29.80;37.10;;;;;;5024467;28;20426;-77
2021/06/02 12:43:00;;;;;;;5.13;4.83;;;29.70;37.70;;;;;;5025745;28;20848;-77
2021/06/02 12:45:28;;;;;;;4.63;4.23;;;29.40;36.60;;;;;;5021022;28;20500;-76
2021/06/02 12:47:54;;;;;;;4.87;4.47;;;29.50;37.00;;;;;;5025000;28;20212;-76
2021/06/02 12:50:36;;;;;;;4.73;4.43;;;29.70;37.50;;;;;;5026903;28;20430;-76
2021/06/02 12:53:03;;;;;;;8.63;4.47;;;29.80;37.70;;;;;;5019412;28;20493;-76
2021/06/02 12:55:31;;;;;;;4.87;4.50;;;29.80;37.30;;;;;;5024347;28;20485;-76
2021/06/02 12:58:03;;;;;;;4.40;4.10;;;29.80;37.70;;;;;;5023755;28;20494;-76
2021/06/02 13:00:29;;;;;;;4.50;4.20;;;29.80;37.80;;;;;;5021229;28;20518;-76
2021/06/02 13:02:55;;;;;;;5.43;5.03;;;29.80;37.10;;;;;;5021560;28;20868;-76
2021/06/02 13:05:22;;;;;;;4.73;4.33;;;29.80;37.70;;;;;;5024917;28;20195;-75
2021/06/02 13:07:47;;;;;;;4.80;4.50;;;29.90;37.40;;;;;;5022149;28;20467;-75
2021/06/02 13:10:14;;;;;;;5.70;4.83;;;29.90;37.00;;;;;;5024054;28;20468;-76
2021/06/02 13:12:50;;;;;;;9.50;4.93;;;29.90;37.20;;;;;;5023432;28;20254;-75
2021/06/02 13:15:25;;;;;;;5.60;5.20;;;30.00;37.30;;;;;;5028338;28;20459;-76
2021/06/02 13:17:50;;;;;;;4.70;4.30;;;30.10;36.80;;;;;;5024652;28;20451;-75
2021/06/02 13:20:43;;;;;;;5.00;4.70;;;30.10;36.60;;;;;;5023237;28;20443;-76
2021/06/02 13:23:20;;;;;;;4.97;4.57;;;30.20;38.20;;;;;;5022867;28;21442;-76
2021/06/02 13:25:57;;;;;;;4.97;4.67;;;30.20;37.40;;;;;;5024624;28;20793;-76
2021/06/02 13:28:23;;;;;;;6.43;5.00;;;30.20;38.00;;;;;;5022503;28;20490;-76
2021/06/02 13:30:49;;;;;;;5.10;4.80;;;30.20;37.40;;;;;;5025565;28;20454;-76